CheckWX is a tool to help pilots better visualize weather data.  It is not intended as a substitute for an official pre-flight weather briefing.

12:23:32 UTC

KEGI TAF
Duke Field Airport
Crestview, Florida, USA
TAF KEGI 220900Z 2209/2315 33006KT 9999 SKC QNH3002INS TX22/2221Z TN09/2211Z LAST NO AMDS AFT 2209 NEXT 2213

Mar-22@
09:00 UTC

Mar-22 @ 09:00 UTC

Mar-23@
15:00 UTC

Mar-23 @ 15:00 UTC

TAF KEGI 220900Z 2209/2315 33006KT 9999 SKC QNH3002INS TX22/2221Z TN09/2211Z LAST NO AMDS AFT 2209 NEXT 2213
Wind
  • 330° at 6 KTS
Cloud Levels
  • Clear skies